Time;durP1;ratioP1;P1;durP2;ratioP2;P2;SDS_P1;SDS_P2;PMS_P1;PMS_P2;Temp;Humidity;BMP_temperature;BMP_pressure;BME280_temperature;BME280_humidity;BME280_pressure;Samples;Min_cycle;Max_cycle;Signal;HPM_P1;HPM_P2
2021/07/14 00:00:27;;;;;;;111.50;69.30;;;19.60;99.90;;;;;;5014011;28;20448;-67
2021/07/14 00:02:54;;;;;;;108.70;66.00;;;19.60;99.90;;;;;;5013857;28;20457;-66
2021/07/14 00:05:23;;;;;;;127.17;71.70;;;19.60;99.90;;;;;;5014058;28;20446;-67
2021/07/14 00:07:50;;;;;;;120.23;73.80;;;19.60;99.90;;;;;;5013918;28;21071;-66
2021/07/14 00:10:19;;;;;;;106.50;61.80;;;19.60;99.90;;;;;;5013935;28;20472;-67
2021/07/14 00:12:53;;;;;;;111.07;64.63;;;19.60;99.90;;;;;;5013623;28;20434;-66
2021/07/14 00:23:37;;;;;;;93.67;56.80;;;19.50;99.90;;;;;;5013740;28;20787;-67
2021/07/14 00:26:04;;;;;;;86.53;53.97;;;19.60;99.90;;;;;;5013677;28;20508;-67
2021/07/14 00:28:33;;;;;;;56.30;36.60;;;19.60;99.90;;;;;;5013228;28;20474;-66
2021/07/14 00:31:01;;;;;;;34.27;24.80;;;19.50;99.90;;;;;;5012501;28;20516;-66
2021/07/14 00:33:30;;;;;;;20.67;15.10;;;19.40;99.90;;;;;;5012421;28;20927;-67
2021/07/14 00:35:57;;;;;;;22.27;16.97;;;19.40;99.90;;;;;;5012446;28;20485;-67
2021/07/14 00:38:24;;;;;;;23.93;18.07;;;19.40;99.90;;;;;;5012370;28;20997;-66
2021/07/14 00:40:50;;;;;;;19.53;14.70;;;19.40;99.90;;;;;;5012570;28;20816;-67
2021/07/14 00:43:17;;;;;;;21.57;14.47;;;19.40;99.90;;;;;;5012029;28;20947;-66
2021/07/14 00:45:44;;;;;;;17.13;14.17;;;19.40;99.90;;;;;;5011698;28;20446;-66
2021/07/14 00:48:11;;;;;;;20.17;15.07;;;19.30;99.90;;;;;;5012141;28;20531;-66
2021/07/14 00:50:40;;;;;;;17.53;15.30;;;19.30;99.90;;;;;;5012249;28;20454;-67
2021/07/14 00:53:07;;;;;;;17.47;14.30;;;19.20;99.90;;;;;;5011912;28;20477;-66
2021/07/14 00:55:34;;;;;;;20.43;16.53;;;19.20;99.90;;;;;;5011983;28;20488;-66
2021/07/14 00:58:01;;;;;;;18.97;15.93;;;19.20;99.90;;;;;;5012111;28;20497;-66
2021/07/14 01:00:28;;;;;;;18.43;16.43;;;19.20;99.90;;;;;;5012063;28;20450;-67
2021/07/14 01:02:55;;;;;;;19.03;17.03;;;19.20;99.90;;;;;;5011866;28;20441;-67
2021/07/14 01:05:25;;;;;;;23.30;18.20;;;19.20;99.90;;;;;;5012089;28;20864;-67
2021/07/14 01:07:58;;;;;;;25.13;20.67;;;19.20;99.90;;;;;;5011920;28;20469;-66
2021/07/14 01:10:31;;;;;;;26.03;19.97;;;19.20;99.90;;;;;;5012223;28;20477;-66
2021/07/14 01:13:03;;;;;;;22.70;18.97;;;19.10;99.90;;;;;;5011803;28;20939;-67
2021/07/14 01:15:36;;;;;;;24.83;20.60;;;19.10;99.90;;;;;;5011883;28;20485;-67
2021/07/14 01:18:10;;;;;;;25.87;20.97;;;19.10;99.90;;;;;;5011995;28;21026;-67
2021/07/14 01:20:56;;;;;;;27.43;20.83;;;19.10;99.90;;;;;;5011701;28;20452;-66
2021/07/14 01:23:45;;;;;;;18.37;15.97;;;19.10;99.90;;;;;;5011546;28;20461;-67
2021/07/14 01:26:23;;;;;;;19.00;14.37;;;19.10;99.90;;;;;;5011680;28;20508;-67
2021/07/14 01:28:54;;;;;;;14.30;13.00;;;19.00;99.90;;;;;;4975544;28;1053567;-67
2021/07/14 01:31:22;;;;;;;15.23;13.73;;;19.00;99.90;;;;;;5012356;28;20210;-67
2021/07/14 01:33:55;;;;;;;14.90;13.37;;;19.00;99.90;;;;;;5012348;28;20462;-67
2021/07/14 01:36:24;;;;;;;13.83;12.33;;;18.90;99.90;;;;;;5012282;28;20481;-67
2021/07/14 01:38:50;;;;;;;14.20;12.43;;;19.00;99.90;;;;;;5012261;28;21185;-67
2021/07/14 01:41:20;;;;;;;18.70;12.70;;;18.90;99.90;;;;;;5012137;28;20453;-67
2021/07/14 01:43:49;;;;;;;14.20;12.90;;;18.90;99.90;;;;;;5012267;28;20446;-67
2021/07/14 01:46:19;;;;;;;12.00;11.00;;;18.90;99.90;;;;;;5012100;28;20936;-67
2021/07/14 01:48:49;;;;;;;14.27;11.80;;;18.90;99.90;;;;;;5012021;28;20470;-67
2021/07/14 01:51:16;;;;;;;15.13;11.80;;;18.80;99.90;;;;;;5011999;28;20450;-67
2021/07/14 01:53:45;;;;;;;13.40;11.40;;;18.90;99.90;;;;;;5012078;28;20450;-67
2021/07/14 01:56:13;;;;;;;10.87;9.97;;;18.90;99.90;;;;;;5012006;28;20834;-67
2021/07/14 01:58:42;;;;;;;10.20;9.17;;;18.90;99.90;;;;;;5011942;28;20469;-67
2021/07/14 02:01:12;;;;;;;10.47;9.43;;;18.80;99.90;;;;;;5011902;28;20961;-67
2021/07/14 02:03:54;;;;;;;11.33;10.03;;;18.90;99.90;;;;;;5012149;28;20446;-67
2021/07/14 02:06:21;;;;;;;10.80;9.20;;;18.80;99.90;;;;;;5011994;28;20477;-67
2021/07/14 02:08:48;;;;;;;10.57;9.57;;;18.80;99.90;;;;;;5011788;28;20501;-67
2021/07/14 02:11:16;;;;;;;11.80;10.63;;;18.90;99.90;;;;;;5011688;28;20454;-67
2021/07/14 02:13:45;;;;;;;11.23;10.23;;;18.90;99.90;;;;;;5011726;28;20457;-67
2021/07/14 02:16:14;;;;;;;10.77;9.87;;;18.80;99.90;;;;;;5011719;28;21029;-67
2021/07/14 02:18:44;;;;;;;11.83;10.90;;;18.80;99.90;;;;;;5011735;28;20826;-67
2021/07/14 02:21:11;;;;;;;12.20;11.13;;;18.90;99.90;;;;;;5011604;28;20809;-67
2021/07/14 02:23:37;;;;;;;11.33;9.57;;;18.80;99.90;;;;;;5011731;28;20453;-67
2021/07/14 02:26:05;;;;;;;10.67;9.90;;;18.90;99.90;;;;;;5011748;28;20446;-67
2021/07/14 02:28:32;;;;;;;10.63;9.60;;;18.90;99.90;;;;;;5011567;28;20500;-67
2021/07/14 02:30:59;;;;;;;11.37;10.47;;;18.90;99.90;;;;;;5011648;28;20461;-67
2021/07/14 02:33:26;;;;;;;10.80;9.70;;;18.90;99.90;;;;;;5011605;28;20460;-67
2021/07/14 02:36:00;;;;;;;10.30;9.30;;;18.90;99.90;;;;;;5011530;28;20509;-67
2021/07/14 02:38:32;;;;;;;12.53;11.33;;;18.90;99.90;;;;;;5011571;28;20508;-67
2021/07/14 02:41:06;;;;;;;10.83;9.70;;;18.90;99.90;;;;;;5011629;28;20473;-67
2021/07/14 02:43:35;;;;;;;11.07;10.17;;;18.90;99.90;;;;;;5011497;28;20454;-67
2021/07/14 02:46:11;;;;;;;10.50;9.70;;;18.90;99.90;;;;;;5011532;28;20442;-67
2021/07/14 02:48:38;;;;;;;11.67;9.97;;;18.90;99.90;;;;;;5011477;28;20469;-67
2021/07/14 02:51:08;;;;;;;10.10;9.27;;;18.90;99.90;;;;;;5011351;28;21092;-67
2021/07/14 02:53:39;;;;;;;10.30;9.40;;;18.90;99.90;;;;;;5011408;28;20974;-67
2021/07/14 02:56:14;;;;;;;10.07;9.07;;;18.90;99.90;;;;;;5011540;28;20509;-67
2021/07/14 02:58:43;;;;;;;10.57;9.47;;;18.90;99.90;;;;;;5011379;28;20470;-67
2021/07/14 03:01:13;;;;;;;9.80;8.80;;;18.80;99.90;;;;;;5011214;28;20453;-67
2021/07/14 03:03:40;;;;;;;9.87;9.17;;;18.80;99.90;;;;;;5011318;28;20449;-67
2021/07/14 03:06:08;;;;;;;8.93;8.27;;;18.90;99.90;;;;;;5011213;28;20967;-67
2021/07/14 03:08:36;;;;;;;12.27;11.17;;;18.90;99.90;;;;;;5014079;28;20478;-67
2021/07/14 03:11:04;;;;;;;9.27;8.57;;;18.90;99.90;;;;;;5014904;28;20461;-66
2021/07/14 03:13:32;;;;;;;10.63;9.50;;;18.80;99.90;;;;;;5014875;28;20809;-67
2021/07/14 03:15:59;;;;;;;10.17;9.23;;;18.80;99.90;;;;;;5014860;28;20496;-67
2021/07/14 03:18:28;;;;;;;10.67;9.77;;;18.80;99.90;;;;;;5014677;28;21004;-67
2021/07/14 03:20:57;;;;;;;10.23;9.47;;;18.90;99.90;;;;;;5014793;28;20446;-67
2021/07/14 03:23:26;;;;;;;11.40;10.30;;;18.80;99.90;;;;;;5014630;28;20947;-67
2021/07/14 03:25:54;;;;;;;10.80;9.80;;;18.90;99.90;;;;;;5014736;28;20454;-67
2021/07/14 03:28:22;;;;;;;11.67;10.80;;;18.90;99.90;;;;;;5014612;28;20500;-67
2021/07/14 03:30:51;;;;;;;11.00;10.03;;;18.90;99.90;;;;;;5014571;28;20442;-67
2021/07/14 03:33:19;;;;;;;11.87;10.43;;;18.90;99.90;;;;;;5014427;28;20449;-67
2021/07/14 03:35:46;;;;;;;10.37;9.37;;;18.90;99.90;;;;;;5014421;28;20450;-67
2021/07/14 03:38:14;;;;;;;11.00;10.03;;;18.90;99.90;;;;;;5014401;28;20469;-67
2021/07/14 03:40:44;;;;;;;11.00;10.00;;;18.80;99.90;;;;;;5014566;28;20461;-67
2021/07/14 03:43:12;;;;;;;16.13;11.83;;;18.80;99.90;;;;;;5014276;28;20454;-67
2021/07/14 03:45:40;;;;;;;14.87;11.43;;;18.80;99.90;;;;;;5014437;28;20450;-67
2021/07/14 03:48:10;;;;;;;11.77;10.60;;;18.80;99.90;;;;;;5014469;28;20982;-67
2021/07/14 03:50:38;;;;;;;13.27;12.07;;;18.80;99.90;;;;;;5014225;28;20864;-67
2021/07/14 03:53:05;;;;;;;11.50;10.40;;;18.80;99.90;;;;;;5014101;28;20461;-67
2021/07/14 03:55:32;;;;;;;11.00;10.10;;;18.80;99.90;;;;;;5014213;28;20481;-67
2021/07/14 03:58:00;;;;;;;15.13;12.57;;;18.80;99.90;;;;;;5013983;28;20496;-67
2021/07/14 04:00:27;;;;;;;14.43;12.93;;;18.80;99.90;;;;;;5013983;28;20457;-67
2021/07/14 04:02:54;;;;;;;22.80;16.80;;;18.80;99.90;;;;;;5014025;28;20449;-67
2021/07/14 04:05:21;;;;;;;15.30;13.90;;;18.80;99.90;;;;;;5014200;28;20438;-67
2021/07/14 04:07:50;;;;;;;17.13;13.77;;;18.80;99.90;;;;;;5013875;28;21040;-67
2021/07/14 04:10:17;;;;;;;16.90;14.10;;;18.80;99.90;;;;;;5013947;28;20446;-67
2021/07/14 04:12:44;;;;;;;16.80;14.80;;;18.90;99.90;;;;;;5013767;28;20454;-67
2021/07/14 04:15:12;;;;;;;39.97;26.53;;;19.00;99.90;;;;;;5013772;28;20442;-67
2021/07/14 04:17:39;;;;;;;26.53;20.80;;;19.00;99.90;;;;;;5013690;28;20489;-67
2021/07/14 04:20:06;;;;;;;78.23;45.97;;;19.00;99.90;;;;;;5012564;28;20453;-67
2021/07/14 04:22:33;;;;;;;94.17;54.30;;;19.10;99.90;;;;;;5013534;28;20473;-67
2021/07/14 04:25:01;;;;;;;97.37;52.60;;;19.20;99.90;;;;;;5013422;28;20450;-67
2021/07/14 04:27:27;;;;;;;87.90;52.13;;;19.20;99.90;;;;;;5013190;28;20585;-67
2021/07/14 04:29:54;;;;;;;87.83;52.97;;;19.30;99.90;;;;;;5013423;28;20823;-67
2021/07/14 04:32:22;;;;;;;100.47;57.17;;;19.30;99.90;;;;;;5013359;28;20446;-67
2021/07/14 04:34:49;;;;;;;90.30;52.30;;;19.30;99.90;;;;;;5013339;28;20557;-67
2021/07/14 04:37:15;;;;;;;88.13;53.90;;;19.30;99.90;;;;;;5013243;28;20482;-67
2021/07/14 04:39:42;;;;;;;88.27;53.30;;;19.40;99.90;;;;;;5013375;28;20449;-67
2021/07/14 04:42:09;;;;;;;78.00;49.17;;;19.40;99.90;;;;;;5013005;28;20521;-67
2021/07/14 04:44:38;;;;;;;85.70;54.07;;;19.40;99.90;;;;;;5013254;28;20457;-67
2021/07/14 04:47:05;;;;;;;81.00;49.80;;;19.40;99.90;;;;;;5012960;28;20453;-67
2021/07/14 04:49:33;;;;;;;79.97;46.70;;;19.40;99.90;;;;;;5013025;28;20461;-67
2021/07/14 04:51:59;;;;;;;78.83;47.60;;;19.40;99.90;;;;;;5012981;28;20990;-67
2021/07/14 04:54:26;;;;;;;71.87;46.40;;;19.50;99.90;;;;;;5012922;28;20457;-67
2021/07/14 04:56:53;;;;;;;76.03;48.20;;;19.50;99.90;;;;;;5013056;28;20492;-67
2021/07/14 04:59:20;;;;;;;71.23;47.37;;;19.50;99.90;;;;;;5012800;28;20835;-67
2021/07/14 05:01:47;;;;;;;76.10;47.47;;;19.50;99.90;;;;;;5012637;28;20454;-67
2021/07/14 05:04:13;;;;;;;73.40;44.90;;;19.50;99.90;;;;;;5012780;28;20474;-67
2021/07/14 05:06:41;;;;;;;64.53;43.60;;;19.50;99.90;;;;;;5012883;28;20442;-67
2021/07/14 05:09:08;;;;;;;64.37;45.80;;;19.50;99.90;;;;;;5012681;28;21022;-67
2021/07/14 05:11:35;;;;;;;73.10;44.30;;;19.50;99.90;;;;;;5012520;28;20932;-67
2021/07/14 05:14:02;;;;;;;76.07;45.47;;;19.50;99.90;;;;;;5012679;28;20450;-67
2021/07/14 05:16:28;;;;;;;78.00;46.80;;;19.50;99.90;;;;;;5012446;28;20959;-67
2021/07/14 05:18:55;;;;;;;71.77;46.17;;;19.40;99.90;;;;;;5012624;28;20489;-67
2021/07/14 05:21:22;;;;;;;78.83;47.73;;;19.40;99.90;;;;;;5012446;28;20442;-67
2021/07/14 05:23:50;;;;;;;84.13;51.17;;;19.40;99.90;;;;;;5012555;28;20434;-67
2021/07/14 05:26:17;;;;;;;95.00;53.20;;;19.50;99.90;;;;;;5012649;28;20461;-67
2021/07/14 05:28:45;;;;;;;83.60;52.57;;;19.50;99.90;;;;;;5012003;28;20469;-67
2021/07/14 05:31:11;;;;;;;86.53;49.83;;;19.40;99.90;;;;;;5011895;28;20450;-67
2021/07/14 05:33:38;;;;;;;81.43;50.00;;;19.40;99.90;;;;;;5012361;28;20461;-67
2021/07/14 05:36:05;;;;;;;80.93;47.43;;;19.40;99.90;;;;;;5012370;28;20454;-66
2021/07/14 05:38:32;;;;;;;98.37;54.30;;;19.40;99.90;;;;;;5012067;28;20493;-66
2021/07/14 05:41:00;;;;;;;102.47;52.77;;;19.40;99.90;;;;;;5012301;28;20445;-66
2021/07/14 05:43:27;;;;;;;104.13;55.10;;;19.30;99.90;;;;;;5012061;28;20536;-66
2021/07/14 05:45:54;;;;;;;80.20;50.80;;;19.30;99.90;;;;;;5012536;28;20452;-67
2021/07/14 05:48:21;;;;;;;99.60;53.40;;;19.40;99.90;;;;;;5012245;28;20469;-67
2021/07/14 05:50:48;;;;;;;97.30;53.17;;;19.30;99.90;;;;;;5012121;28;20985;-67
2021/07/14 05:53:14;;;;;;;99.50;56.03;;;19.30;99.90;;;;;;5011832;28;20450;-67
2021/07/14 05:55:41;;;;;;;104.03;55.97;;;19.30;99.90;;;;;;5012172;28;20445;-67
2021/07/14 05:58:11;;;;;;;105.00;60.97;;;19.30;99.90;;;;;;5011979;28;20494;-67
2021/07/14 06:00:38;;;;;;;99.87;59.83;;;19.30;99.90;;;;;;5011963;28;20939;-67
2021/07/14 06:03:05;;;;;;;110.63;55.10;;;19.30;99.90;;;;;;5011703;28;20958;-67
2021/07/14 06:05:32;;;;;;;113.30;59.07;;;19.30;99.90;;;;;;5011859;28;20445;-67
2021/07/14 06:07:59;;;;;;;107.63;59.07;;;19.30;99.90;;;;;;5011793;28;20971;-67
2021/07/14 06:10:26;;;;;;;114.60;60.00;;;19.30;99.90;;;;;;5011924;28;20457;-67
2021/07/14 06:12:56;;;;;;;112.10;55.70;;;19.20;99.90;;;;;;5011491;28;20450;-67
2021/07/14 06:15:24;;;;;;;88.37;50.87;;;19.20;99.90;;;;;;5012136;28;20454;-67
2021/07/14 06:17:51;;;;;;;103.10;56.23;;;19.20;99.90;;;;;;5011716;28;20497;-67
2021/07/14 06:20:17;;;;;;;105.40;56.57;;;19.20;99.90;;;;;;5011784;28;20457;-66
2021/07/14 06:22:44;;;;;;;105.83;55.73;;;19.20;99.90;;;;;;5011574;28;20450;-67
2021/07/14 06:25:12;;;;;;;114.63;58.60;;;19.20;99.90;;;;;;5011759;28;20451;-67
2021/07/14 06:27:39;;;;;;;99.53;52.50;;;19.20;99.90;;;;;;5036225;22;20995;-67
2021/07/14 06:30:09;;;;;;;96.83;54.00;;;19.20;99.90;;;;;;5004220;28;20449;-67
2021/07/14 06:32:37;;;;;;;99.97;52.67;;;19.20;99.90;;;;;;5011742;28;20931;-67
2021/07/14 06:35:04;;;;;;;117.10;58.40;;;19.20;99.90;;;;;;5011682;28;20454;-67
2021/07/14 06:37:31;;;;;;;99.43;54.20;;;19.20;99.90;;;;;;5011480;28;20508;-67
2021/07/14 06:39:57;;;;;;;105.53;55.13;;;19.20;99.90;;;;;;5011763;28;20450;-67
2021/07/14 06:42:24;;;;;;;111.00;54.80;;;19.20;99.90;;;;;;5012729;28;20453;-67
2021/07/14 06:44:51;;;;;;;88.07;48.77;;;19.20;99.90;;;;;;5015923;28;20457;-67
2021/07/14 06:47:18;;;;;;;103.10;48.57;;;19.20;99.90;;;;;;5016030;28;20452;-67
2021/07/14 06:49:46;;;;;;;78.87;43.23;;;19.30;99.90;;;;;;5015817;28;20477;-67
2021/07/14 06:52:12;;;;;;;90.00;49.00;;;19.20;99.90;;;;;;5015531;28;20819;-67
2021/07/14 06:54:40;;;;;;;86.40;47.80;;;19.20;99.90;;;;;;5015531;28;20449;-67
2021/07/14 06:57:07;;;;;;;69.27;39.17;;;19.30;99.90;;;;;;5015260;28;20540;-67
2021/07/14 06:59:34;;;;;;;87.60;45.33;;;19.20;99.90;;;;;;5015523;28;20850;-68
2021/07/14 07:02:02;;;;;;;87.57;44.43;;;19.20;99.90;;;;;;5015383;28;20442;-67
2021/07/14 07:04:29;;;;;;;87.70;44.23;;;19.20;99.90;;;;;;5015697;28;20449;-67
2021/07/14 07:06:57;;;;;;;97.23;47.60;;;19.30;99.90;;;;;;5015263;28;20446;-67
2021/07/14 07:09:24;;;;;;;92.23;43.67;;;19.30;99.90;;;;;;5015074;28;21005;-67
2021/07/14 07:11:51;;;;;;;86.00;45.50;;;19.30;99.90;;;;;;5015172;28;20482;-66
2021/07/14 07:14:18;;;;;;;89.20;48.53;;;19.30;99.90;;;;;;5015581;28;20473;-67
2021/07/14 07:16:44;;;;;;;87.13;49.90;;;19.30;99.90;;;;;;5015465;28;20445;-67
2021/07/14 07:19:11;;;;;;;78.43;46.97;;;19.30;99.90;;;;;;5014869;28;20853;-68
2021/07/14 07:21:38;;;;;;;79.70;44.50;;;19.30;99.90;;;;;;5015124;28;20829;-67
2021/07/14 07:24:06;;;;;;;80.33;44.80;;;19.30;99.90;;;;;;5015042;28;20455;-67
2021/07/14 07:26:33;;;;;;;69.53;42.63;;;19.40;99.90;;;;;;5015006;28;20446;-66
2021/07/14 07:29:03;;;;;;;79.83;43.83;;;19.40;99.90;;;;;;5015069;28;20505;-67
2021/07/14 07:31:31;;;;;;;82.83;44.20;;;19.40;99.90;;;;;;5014647;28;20465;-66
2021/07/14 07:33:57;;;;;;;77.97;43.17;;;19.40;99.90;;;;;;5014862;28;20580;-66
2021/07/14 07:36:25;;;;;;;75.00;44.70;;;19.40;99.90;;;;;;5014625;28;20450;-68
2021/07/14 07:38:51;;;;;;;77.30;42.27;;;19.40;99.90;;;;;;5014759;28;20512;-67
2021/07/14 07:41:20;;;;;;;79.97;45.00;;;19.40;99.90;;;;;;5014399;28;20461;-66
2021/07/14 07:43:47;;;;;;;70.73;42.40;;;19.40;99.90;;;;;;5014625;28;20454;-67
2021/07/14 07:46:14;;;;;;;70.90;39.67;;;19.40;99.90;;;;;;5014534;28;20533;-67
2021/07/14 07:48:41;;;;;;;64.57;40.80;;;19.40;99.90;;;;;;5014475;28;20465;-67
2021/07/14 07:51:08;;;;;;;66.60;42.07;;;19.50;99.90;;;;;;5014164;28;20446;-67
2021/07/14 07:53:36;;;;;;;69.77;42.50;;;19.50;99.90;;;;;;5014032;28;20457;-67
2021/07/14 07:56:03;;;;;;;66.57;42.10;;;19.40;99.90;;;;;;5014169;28;20449;-66
2021/07/14 07:58:31;;;;;;;63.40;39.43;;;19.50;99.90;;;;;;5014113;28;20489;-67
2021/07/14 08:00:59;;;;;;;51.13;32.17;;;19.50;99.90;;;;;;5014190;28;20472;-67
2021/07/14 08:03:25;;;;;;;60.17;36.43;;;19.50;99.90;;;;;;5014219;28;20827;-66
2021/07/14 08:05:52;;;;;;;49.60;32.87;;;19.50;99.90;;;;;;5014131;28;20449;-67
2021/07/14 08:08:19;;;;;;;58.27;34.13;;;19.50;99.90;;;;;;5013810;28;20469;-67
2021/07/14 08:10:46;;;;;;;54.87;32.23;;;19.60;99.90;;;;;;5013905;28;20461;-67
2021/07/14 08:13:12;;;;;;;50.47;34.90;;;19.60;99.90;;;;;;5013735;28;20817;-67
2021/07/14 08:15:40;;;;;;;44.20;27.80;;;19.60;99.90;;;;;;5013862;28;20453;-67
2021/07/14 08:18:07;;;;;;;41.47;25.47;;;19.60;99.90;;;;;;5013726;28;20883;-67
2021/07/14 08:20:34;;;;;;;31.57;22.20;;;19.60;99.90;;;;;;5013708;28;20931;-67
2021/07/14 08:23:01;;;;;;;31.90;19.97;;;19.50;99.90;;;;;;5013653;28;20453;-67
2021/07/14 08:25:28;;;;;;;37.53;24.73;;;19.50;99.90;;;;;;5013614;28;20473;-66
2021/07/14 08:27:54;;;;;;;39.47;25.93;;;19.50;99.90;;;;;;5013473;28;20477;-67
2021/07/14 08:30:21;;;;;;;31.40;22.37;;;19.40;99.90;;;;;;5013785;28;20454;-67
2021/07/14 08:32:50;;;;;;;33.23;25.00;;;19.40;99.90;;;;;;5013321;28;20449;-67
2021/07/14 08:35:17;;;;;;;26.10;21.10;;;19.40;99.90;;;;;;5013334;28;21021;-67
2021/07/14 08:37:44;;;;;;;31.33;22.33;;;19.30;99.90;;;;;;5013358;28;20493;-67
2021/07/14 08:40:11;;;;;;;34.53;23.17;;;19.20;99.90;;;;;;5013486;28;20446;-68
2021/07/14 08:42:42;;;;;;;36.03;23.83;;;19.20;99.90;;;;;;5013237;28;20449;-68
2021/07/14 08:45:12;;;;;;;30.17;23.07;;;19.10;99.90;;;;;;5013276;28;20449;-68
2021/07/14 08:47:40;;;;;;;30.87;21.27;;;19.10;99.90;;;;;;5013324;28;20442;-68
2021/07/14 08:50:10;;;;;;;29.00;19.07;;;19.10;99.90;;;;;;5013208;28;20480;-68
2021/07/14 08:52:38;;;;;;;28.23;18.63;;;19.10;99.90;;;;;;5012982;28;20469;-68
2021/07/14 08:55:06;;;;;;;30.53;22.80;;;19.10;99.90;;;;;;5013171;28;20452;-68
2021/07/14 08:57:32;;;;;;;28.30;20.53;;;19.10;99.90;;;;;;5013020;28;20453;-68
2021/07/14 08:59:59;;;;;;;29.77;20.83;;;19.10;99.90;;;;;;5013179;28;20449;-68
2021/07/14 09:02:27;;;;;;;22.30;16.50;;;19.10;99.90;;;;;;5012712;28;20469;-68
2021/07/14 09:04:53;;;;;;;18.80;14.27;;;19.10;99.90;;;;;;5012369;28;20812;-68
2021/07/14 09:07:21;;;;;;;18.40;13.70;;;19.10;99.90;;;;;;5012887;28;20540;-68
2021/07/14 09:09:48;;;;;;;14.90;10.87;;;19.30;99.90;;;;;;5012669;28;20467;-68
2021/07/14 09:12:16;;;;;;;11.07;9.10;;;19.20;99.90;;;;;;5012443;28;20449;-67
2021/07/14 09:14:44;;;;;;;15.00;8.97;;;19.20;99.90;;;;;;5012696;28;20446;-67
2021/07/14 09:17:25;;;;;;;9.07;8.17;;;19.20;99.90;;;;;;5012692;28;20927;-67
2021/07/14 09:19:53;;;;;;;11.57;8.60;;;19.20;99.90;;;;;;5012554;28;20484;-67
2021/07/14 09:22:23;;;;;;;7.47;6.77;;;19.20;99.90;;;;;;5012492;28;20442;-67
2021/07/14 09:24:50;;;;;;;9.93;8.60;;;19.10;99.90;;;;;;5012687;28;20451;-68
2021/07/14 09:27:19;;;;;;;8.73;7.80;;;19.10;99.90;;;;;;5012485;28;20809;-67
2021/07/14 09:30:07;;;;;;;8.60;7.80;;;19.00;99.90;;;;;;5012206;28;20470;-68
2021/07/14 09:32:45;;;;;;;10.30;7.73;;;19.00;99.90;;;;;;5012142;28;20438;-67
2021/07/14 09:35:12;;;;;;;10.53;8.37;;;18.90;99.90;;;;;;5012440;28;20481;-67
2021/07/14 09:37:40;;;;;;;11.30;8.47;;;19.00;99.90;;;;;;5012215;28;20958;-68
2021/07/14 09:40:15;;;;;;;9.50;8.07;;;19.00;99.90;;;;;;5012287;28;20473;-67
2021/07/14 09:42:51;;;;;;;11.70;10.33;;;19.00;99.90;;;;;;5012226;28;20481;-68
2021/07/14 09:45:33;;;;;;;12.63;11.43;;;19.00;99.90;;;;;;5012675;28;20477;-67
2021/07/14 09:48:00;;;;;;;14.00;10.70;;;19.00;99.90;;;;;;5012230;28;20461;-67
2021/07/14 09:50:32;;;;;;;17.60;12.40;;;19.00;99.90;;;;;;5012049;28;20442;-68
2021/07/14 09:53:05;;;;;;;12.57;11.27;;;19.10;99.90;;;;;;5011989;28;20818;-67
2021/07/14 09:55:33;;;;;;;13.07;11.20;;;19.10;99.90;;;;;;5012238;28;20450;-67
2021/07/14 09:58:10;;;;;;;12.10;10.83;;;19.10;99.90;;;;;;5011916;28;20466;-67
2021/07/14 10:00:41;;;;;;;9.40;8.50;;;19.10;99.90;;;;;;5012110;28;20472;-67
2021/07/14 10:03:08;;;;;;;14.80;10.03;;;19.10;99.90;;;;;;5012019;28;20454;-66
2021/07/14 10:05:35;;;;;;;13.03;11.43;;;19.10;99.90;;;;;;5012055;28;20480;-67
2021/07/14 10:08:17;;;;;;;11.50;9.50;;;19.10;99.90;;;;;;5012106;28;20468;-67
2021/07/14 10:10:44;;;;;;;13.40;11.40;;;19.10;99.90;;;;;;5012155;28;20450;-67
2021/07/14 10:13:12;;;;;;;14.70;13.20;;;19.10;99.90;;;;;;5011707;28;20803;-67
2021/07/14 10:15:39;;;;;;;14.53;12.33;;;19.20;99.90;;;;;;5012089;28;20814;-67
2021/07/14 10:18:11;;;;;;;16.40;13.50;;;19.20;99.90;;;;;;5010813;28;21005;-67
2021/07/14 10:20:39;;;;;;;14.67;13.17;;;19.30;99.90;;;;;;5011989;28;20943;-67
2021/07/14 10:23:07;;;;;;;21.13;14.00;;;19.30;99.90;;;;;;5011711;28;20477;-67
2021/07/14 10:25:36;;;;;;;19.87;14.80;;;19.30;99.90;;;;;;5011754;28;20453;-67
2021/07/14 10:28:05;;;;;;;19.67;16.30;;;19.20;99.90;;;;;;5011564;28;20513;-68
2021/07/14 10:30:32;;;;;;;24.03;17.43;;;19.20;99.90;;;;;;5011727;28;20939;-67
2021/07/14 10:32:59;;;;;;;26.33;19.73;;;19.20;99.90;;;;;;5011563;28;20524;-68
2021/07/14 10:35:29;;;;;;;22.27;18.00;;;19.20;99.90;;;;;;5011704;28;20528;-68
2021/07/14 10:37:59;;;;;;;29.23;22.30;;;19.10;99.90;;;;;;5011768;28;20581;-67
2021/07/14 10:40:26;;;;;;;26.90;21.27;;;19.10;99.90;;;;;;5011620;28;20448;-66
2021/07/14 10:42:55;;;;;;;32.77;25.93;;;19.10;99.90;;;;;;5011715;28;20442;-67
2021/07/14 10:45:23;;;;;;;42.80;28.80;;;19.10;99.90;;;;;;5011597;28;20446;-67
2021/07/14 10:47:51;;;;;;;32.80;22.80;;;19.10;99.90;;;;;;5011533;28;20469;-67
2021/07/14 10:50:20;;;;;;;37.27;25.17;;;19.20;99.90;;;;;;5011407;28;20445;-67
2021/07/14 10:52:47;;;;;;;34.33;22.30;;;19.20;99.90;;;;;;5011322;28;20450;-67
2021/07/14 10:55:19;;;;;;;33.37;22.70;;;19.20;99.90;;;;;;5011966;28;20486;-66
2021/07/14 10:57:47;;;;;;;28.70;22.90;;;19.30;99.90;;;;;;5012226;28;20470;-67
2021/07/14 11:00:17;;;;;;;35.33;25.70;;;19.30;99.90;;;;;;5011837;28;20488;-67
2021/07/14 11:02:46;;;;;;;31.70;21.07;;;19.40;99.90;;;;;;5011476;28;20572;-67
2021/07/14 11:05:14;;;;;;;39.10;26.67;;;19.40;99.90;;;;;;5011495;28;20454;-67
2021/07/14 11:07:43;;;;;;;39.33;25.17;;;19.40;99.90;;;;;;5011936;28;20452;-67
2021/07/14 11:10:25;;;;;;;35.13;23.40;;;19.40;99.90;;;;;;5012550;28;20453;-67
2021/07/14 11:12:52;;;;;;;34.70;23.23;;;19.30;99.90;;;;;;5012605;28;20458;-67
2021/07/14 11:15:35;;;;;;;44.63;27.57;;;19.20;99.90;;;;;;5012175;28;20446;-67
2021/07/14 11:18:17;;;;;;;36.97;24.83;;;19.20;99.90;;;;;;5011279;28;20469;-68
2021/07/14 11:20:44;;;;;;;42.43;25.40;;;19.20;99.90;;;;;;5011263;28;20445;-67
2021/07/14 11:23:20;;;;;;;53.63;32.10;;;19.20;99.90;;;;;;5010898;28;20489;-67
2021/07/14 11:25:50;;;;;;;47.53;31.10;;;19.10;99.90;;;;;;5011202;28;20818;-67
2021/07/14 11:28:16;;;;;;;61.87;34.10;;;19.10;99.90;;;;;;5011622;28;20485;-67
2021/07/14 11:30:47;;;;;;;59.10;35.23;;;19.20;99.90;;;;;;5014790;28;20445;-67
2021/07/14 11:33:35;;;;;;;47.83;29.80;;;19.30;99.90;;;;;;5015009;28;20512;-66
2021/07/14 11:36:04;;;;;;;38.83;26.50;;;19.40;99.90;;;;;;5010269;28;20457;-67
2021/07/14 11:38:42;;;;;;;39.23;24.13;;;19.50;99.90;;;;;;5014537;28;20469;-67
2021/07/14 11:41:19;;;;;;;39.83;24.23;;;19.50;99.90;;;;;;5015028;28;20501;-66
2021/07/14 11:43:47;;;;;;;37.03;24.67;;;19.60;99.90;;;;;;5015390;28;20846;-67
2021/07/14 11:46:17;;;;;;;38.77;23.20;;;19.60;99.90;;;;;;5015554;28;20446;-66
2021/07/14 11:48:48;;;;;;;30.93;22.43;;;19.60;99.90;;;;;;5015124;28;20469;-66
2021/07/14 11:51:23;;;;;;;38.13;26.23;;;19.60;99.90;;;;;;5014313;28;20450;-66
2021/07/14 11:53:52;;;;;;;41.83;25.50;;;19.60;99.90;;;;;;5014311;28;20783;-66
2021/07/14 11:56:38;;;;;;;50.43;29.20;;;19.50;99.90;;;;;;5014302;28;20456;-66
2021/07/14 11:59:11;;;;;;;44.60;27.90;;;19.50;99.90;;;;;;5014845;28;20521;-66
2021/07/14 12:02:07;;;;;;;47.20;31.27;;;19.50;99.90;;;;;;5015336;28;20509;-66
2021/07/14 12:04:40;;;;;;;56.40;36.47;;;19.50;99.90;;;;;;5015617;28;20450;-67
2021/07/14 12:07:16;;;;;;;49.50;31.63;;;19.60;99.90;;;;;;5014966;28;20454;-67
2021/07/14 12:09:44;;;;;;;36.37;28.50;;;19.50;99.90;;;;;;5014463;28;20549;-67
2021/07/14 12:12:20;;;;;;;56.87;34.90;;;19.50;99.90;;;;;;5013988;28;20446;-67
2021/07/14 12:14:49;;;;;;;56.77;35.10;;;19.50;99.90;;;;;;5014502;28;20805;-67
2021/07/14 12:17:19;;;;;;;53.00;37.40;;;19.50;99.90;;;;;;5015008;28;20464;-67
2021/07/14 12:19:47;;;;;;;63.47;37.80;;;19.50;99.90;;;;;;5015910;28;20494;-66
2021/07/14 12:22:16;;;;;;;70.57;40.77;;;19.50;99.90;;;;;;5015475;28;20451;-66
2021/07/14 12:24:46;;;;;;;57.97;35.00;;;19.40;99.90;;;;;;5015023;28;20454;-66
2021/07/14 12:27:17;;;;;;;74.30;42.00;;;19.40;99.90;;;;;;5014133;28;20454;-66
2021/07/14 12:29:50;;;;;;;65.03;37.57;;;19.30;99.90;;;;;;5022150;22;20911;-67
2021/07/14 12:32:32;;;;;;;64.43;40.33;;;19.40;99.90;;;;;;4993734;28;20446;-69
2021/07/14 12:34:59;;;;;;;68.27;37.13;;;19.40;99.90;;;;;;4993812;28;20855;-68
2021/07/14 12:37:26;;;;;;;72.47;43.57;;;19.40;99.90;;;;;;4993753;28;20939;-67
2021/07/14 12:39:53;;;;;;;88.03;47.77;;;19.30;99.90;;;;;;4992571;28;20853;-67
2021/07/14 12:42:22;;;;;;;83.13;46.30;;;19.30;99.90;;;;;;4993596;28;20443;-68
2021/07/14 12:44:50;;;;;;;70.10;39.33;;;19.40;99.90;;;;;;4993635;28;20864;-67